createdAt,value
2022-11-28T00:01:24.817Z,97625.13
2022-11-28T00:03:51.750Z,97570.84
2022-11-28T00:06:19.423Z,97624.50
2022-11-28T00:08:46.243Z,97625.47
2022-11-28T00:11:15.083Z,97610.59
2022-11-28T00:13:42.550Z,97630.47
2022-11-28T00:16:13.170Z,97638.75
2022-11-28T00:18:39.849Z,97628.09
2022-11-28T00:21:09.837Z,97629.69
2022-11-28T00:23:36.653Z,97625.63
2022-11-28T00:26:25.997Z,97628.72
2022-11-28T00:28:53.319Z,97625.50
2022-11-28T00:31:23.464Z,97632.94
2022-11-28T00:33:50.874Z,97635.34
2022-11-28T00:36:18.294Z,97622.38
2022-11-28T00:38:45.058Z,97624.03
2022-11-28T00:41:14.655Z,97575.72
2022-11-28T00:43:43.050Z,97616.09
2022-11-28T00:46:10.596Z,97616.59
2022-11-28T00:48:37.320Z,97611.88
2022-11-28T00:51:06.749Z,97611.56
2022-11-28T00:53:33.407Z,97612.06
2022-11-28T00:56:00.025Z,97615.28
2022-11-28T00:58:26.646Z,97621.09
2022-11-28T01:00:53.194Z,97539.84
2022-11-28T01:03:20.297Z,97590.38
2022-11-28T01:05:46.878Z,97593.63
2022-11-28T01:08:13.441Z,97611.09
2022-11-28T01:10:42.310Z,97610.94
2022-11-28T01:13:10.375Z,97609.78
2022-11-28T01:15:41.016Z,97618.66
2022-11-28T01:18:07.905Z,97607.66
2022-11-28T01:20:35.253Z,97546.13
2022-11-28T01:23:01.965Z,97577.13
2022-11-28T01:25:28.579Z,97603.47
2022-11-28T01:27:55.229Z,97600.72
2022-11-28T01:30:21.830Z,97529.25
2022-11-28T01:32:48.361Z,97585.66
2022-11-28T01:35:14.946Z,97587.38
2022-11-28T01:37:41.631Z,97148.09
2022-11-28T01:40:10.601Z,97580.16
2022-11-28T01:42:37.412Z,97534.28
2022-11-28T01:45:33.208Z,97573.69
2022-11-28T01:48:02.839Z,97517.16
2022-11-28T01:50:32.125Z,97570.13
2022-11-28T01:53:02.128Z,97567.03
2022-11-28T01:55:33.380Z,97558.16
2022-11-28T01:58:00.184Z,97576.22
2022-11-28T02:00:28.284Z,97577.16
2022-11-28T02:03:01.672Z,97570.72
2022-11-28T02:05:28.109Z,97567.81
2022-11-28T02:07:54.865Z,97563.66
2022-11-28T02:10:29.362Z,97570.47
2022-11-28T02:13:05.021Z,97564.31
2022-11-28T02:16:11.261Z,97560.72
2022-11-28T02:18:51.204Z,97560.56
2022-11-28T02:21:38.946Z,97556.81
2022-11-28T02:24:16.070Z,97561.66
2022-11-28T02:27:10.301Z,97561.22
2022-11-28T02:30:01.198Z,97557.31
2022-11-28T02:32:47.237Z,97557.88
2022-11-28T02:35:38.449Z,97560.41
2022-11-28T02:38:21.001Z,97559.13
2022-11-28T02:41:07.815Z,97557.03
2022-11-28T02:44:08.265Z,97552.63
2022-11-28T02:46:40.607Z,97558.06
2022-11-28T02:49:18.343Z,97559.03
2022-11-28T02:51:50.617Z,97525.63
2022-11-28T02:54:18.652Z,97558.38
2022-11-28T02:56:53.405Z,97511.94
2022-11-28T02:59:38.156Z,97560.66
2022-11-28T03:02:26.039Z,97513.28
2022-11-28T03:05:01.753Z,97558.22
2022-11-28T03:07:34.487Z,97556.63
2022-11-28T03:10:17.919Z,97554.47
2022-11-28T03:13:07.176Z,97562.31
2022-11-28T03:15:48.823Z,97561.03
2022-11-28T03:18:24.636Z,97568.78
2022-11-28T03:21:01.457Z,97476.78
2022-11-28T03:24:06.433Z,97560.81
2022-11-28T03:26:51.724Z,97567.78
2022-11-28T03:29:31.305Z,97549.19
2022-11-28T03:32:03.251Z,97568.25
2022-11-28T03:34:34.452Z,97572.13
2022-11-28T03:37:07.293Z,97517.06
2022-11-28T03:39:38.183Z,97571.47
2022-11-28T03:42:10.704Z,97572.94
2022-11-28T03:44:46.591Z,97578.78
2022-11-28T03:47:13.271Z,97584.75
2022-11-28T03:49:46.231Z,97574.44
2022-11-28T03:52:18.577Z,97581.88
2022-11-28T03:55:03.237Z,97575.38
2022-11-28T03:58:08.079Z,97579.91
2022-11-28T04:00:44.004Z,97435.41
2022-11-28T04:03:22.497Z,97522.94
2022-11-28T04:05:59.370Z,97586.28
2022-11-28T04:08:44.504Z,97575.28
2022-11-28T04:11:20.521Z,97584.28
2022-11-28T04:14:22.471Z,97586.25
2022-11-28T04:17:05.834Z,97602.06
2022-11-28T04:19:59.410Z,97593.19
2022-11-28T04:22:41.850Z,97546.84
2022-11-28T04:25:13.571Z,97594.72
2022-11-28T04:27:46.559Z,97597.66
2022-11-28T04:30:13.873Z,97611.91
2022-11-28T04:32:47.878Z,97603.31
2022-11-28T04:35:20.433Z,97612.84
2022-11-28T04:37:48.844Z,97601.81
2022-11-28T04:40:17.565Z,97614.09
2022-11-28T04:42:59.558Z,97610.50
2022-11-28T04:45:34.973Z,97621.94
2022-11-28T04:48:02.463Z,97616.00
2022-11-28T04:50:37.833Z,97612.44
2022-11-28T04:53:22.157Z,97573.63
2022-11-28T04:56:01.614Z,97609.47
2022-11-28T04:58:39.372Z,97613.34
2022-11-28T05:01:09.821Z,97619.47
2022-11-28T05:03:42.279Z,97609.47
2022-11-28T05:06:09.810Z,97542.22
2022-11-28T05:08:36.518Z,97604.88
2022-11-28T05:11:03.150Z,97605.91
2022-11-28T05:13:29.727Z,97622.13
2022-11-28T05:15:59.801Z,97610.69
2022-11-28T05:18:26.481Z,97611.31
2022-11-28T05:20:53.053Z,97610.94
2022-11-28T05:23:19.632Z,97615.16
2022-11-28T05:25:46.209Z,97591.53
2022-11-28T05:28:12.791Z,97617.88
2022-11-28T05:30:39.418Z,97608.31
2022-11-28T05:33:06.085Z,97609.28
2022-11-28T05:35:32.625Z,97611.56
2022-11-28T05:37:59.271Z,97566.28
2022-11-28T05:40:25.894Z,97613.56
2022-11-28T05:42:52.561Z,97610.94
2022-11-28T05:45:19.140Z,97619.66
2022-11-28T05:47:45.834Z,97616.38
2022-11-28T05:50:12.442Z,97627.81
2022-11-28T05:52:39.041Z,97630.50
2022-11-28T05:55:06.247Z,97623.25
2022-11-28T05:57:32.918Z,97617.00
2022-11-28T05:59:59.540Z,97595.84
2022-11-28T06:02:26.153Z,97609.09
2022-11-28T06:04:52.802Z,97602.19
2022-11-28T06:07:19.991Z,97606.84
2022-11-28T06:09:46.728Z,97607.50
2022-11-28T06:12:13.418Z,97610.44
2022-11-28T06:14:40.228Z,97604.66
2022-11-28T06:17:06.756Z,97602.22
2022-11-28T06:19:33.404Z,97600.19
2022-11-28T06:21:59.937Z,97595.03
2022-11-28T06:24:26.539Z,97599.53
2022-11-28T06:26:53.212Z,97602.59
2022-11-28T06:29:19.813Z,97578.06
2022-11-28T06:31:46.524Z,97603.56
2022-11-28T06:34:13.505Z,97600.69
2022-11-28T06:36:40.216Z,97602.94
2022-11-28T06:39:07.134Z,97612.44
2022-11-28T06:41:33.901Z,97604.25
2022-11-28T06:44:00.496Z,97601.81
2022-11-28T06:46:27.123Z,97544.28
2022-11-28T06:48:53.702Z,97599.75
2022-11-28T06:51:21.224Z,97598.31
2022-11-28T06:53:48.200Z,97598.16
2022-11-28T06:56:18.143Z,97587.19
2022-11-28T06:58:45.614Z,97537.59
2022-11-28T07:01:20.412Z,97596.22
2022-11-28T07:03:48.514Z,97551.16
2022-11-28T07:06:17.475Z,97597.69
2022-11-28T07:08:44.253Z,97589.28
2022-11-28T07:11:19.611Z,97573.44
2022-11-28T07:13:47.193Z,97532.25
2022-11-28T07:16:19.599Z,97529.16
2022-11-28T07:18:46.337Z,97515.13
2022-11-28T07:21:14.748Z,97573.09
2022-11-28T07:23:41.990Z,97568.84
2022-11-28T07:26:08.610Z,97564.16
2022-11-28T07:28:35.404Z,97497.44
2022-11-28T07:31:10.914Z,97559.13
2022-11-28T07:33:39.193Z,97568.13
2022-11-28T07:36:09.986Z,97513.75
2022-11-28T07:38:36.617Z,97525.53
2022-11-28T07:41:09.535Z,97505.31
2022-11-28T07:43:36.570Z,97539.97
2022-11-28T07:46:06.077Z,97561.63
2022-11-28T07:48:33.220Z,97561.63
2022-11-28T07:51:00.082Z,97462.50
2022-11-28T07:53:26.714Z,97560.38
2022-11-28T07:55:53.265Z,97547.44
2022-11-28T07:58:21.742Z,97564.00
2022-11-28T08:00:48.688Z,97568.53
2022-11-28T08:03:15.362Z,97557.75
2022-11-28T08:05:43.389Z,97492.06
2022-11-28T08:08:09.908Z,97546.25
2022-11-28T08:10:36.566Z,97549.28
2022-11-28T08:13:03.200Z,97551.66
2022-11-28T08:15:31.715Z,97528.06
2022-11-28T08:17:58.266Z,97548.91
2022-11-28T08:20:24.986Z,97467.28
2022-11-28T08:22:51.679Z,97530.97
2022-11-28T08:25:18.287Z,97517.69
2022-11-28T08:27:44.990Z,97551.00
2022-11-28T08:30:11.900Z,97554.38
2022-11-28T08:32:38.465Z,97544.09
2022-11-28T08:35:05.721Z,97539.19
2022-11-28T08:37:32.395Z,97536.00
2022-11-28T08:39:59.001Z,97465.94
2022-11-28T08:42:25.644Z,97134.53
2022-11-28T08:44:52.198Z,97529.34
2022-11-28T08:47:18.738Z,97509.47
2022-11-28T08:49:45.628Z,97495.56
2022-11-28T08:52:13.102Z,97538.22
2022-11-28T08:54:41.057Z,97517.56
2022-11-28T08:57:07.920Z,97461.75
2022-11-28T08:59:34.546Z,97518.19
2022-11-28T09:02:01.170Z,97505.13
2022-11-28T09:04:28.502Z,97498.34
2022-11-28T09:06:55.134Z,97497.13
2022-11-28T09:09:22.117Z,97492.28
2022-11-28T09:11:48.789Z,97434.97
2022-11-28T09:14:15.405Z,97491.41
2022-11-28T09:16:42.129Z,97469.19
2022-11-28T09:19:10.685Z,97487.06
2022-11-28T09:21:37.374Z,97493.78
2022-11-28T09:24:04.229Z,97490.56
2022-11-28T09:26:31.035Z,97484.16
2022-11-28T09:28:57.646Z,97478.38
2022-11-28T09:31:24.425Z,97481.34
2022-11-28T09:33:51.220Z,97481.56
2022-11-28T09:36:21.108Z,97484.06
2022-11-28T09:38:48.168Z,97474.09
2022-11-28T09:41:30.820Z,97469.34
2022-11-28T09:44:06.800Z,97470.31
2022-11-28T09:46:35.889Z,97415.53
2022-11-28T09:49:07.121Z,97464.53
2022-11-28T09:51:48.668Z,97462.72
2022-11-28T09:54:37.234Z,97469.50
2022-11-28T09:57:10.908Z,97445.91
2022-11-28T09:59:37.596Z,97464.16
2022-11-28T10:02:13.136Z,97454.41
2022-11-28T10:04:42.387Z,97441.31
2022-11-28T10:07:18.394Z,97451.78
2022-11-28T10:10:20.197Z,97450.41
2022-11-28T10:13:13.855Z,97449.34
2022-11-28T10:15:59.629Z,97414.66
2022-11-28T10:18:46.370Z,97456.44
2022-11-28T10:21:33.291Z,97450.94
2022-11-28T10:24:30.050Z,97453.22
2022-11-28T10:27:02.814Z,97451.28
2022-11-28T10:30:04.922Z,97447.78
2022-11-28T10:32:44.311Z,97427.22
2022-11-28T10:35:28.573Z,97444.38
2022-11-28T10:37:55.585Z,97429.81
2022-11-28T10:40:33.093Z,97428.38
2022-11-28T10:43:26.388Z,97351.28
2022-11-28T10:46:14.520Z,97428.88
2022-11-28T10:48:52.096Z,97410.22
2022-11-28T10:51:37.202Z,97421.53
2022-11-28T10:54:18.643Z,97390.88
2022-11-28T10:57:08.200Z,97425.00
2022-11-28T10:59:50.971Z,97412.75
2022-11-28T11:02:40.354Z,97413.16
2022-11-28T11:05:13.477Z,97413.81
2022-11-28T11:07:47.048Z,97406.88
2022-11-28T11:10:19.482Z,97408.16
2022-11-28T11:12:47.223Z,97347.56
2022-11-28T11:15:25.948Z,97414.06
2022-11-28T11:17:52.780Z,97326.03
2022-11-28T11:20:29.970Z,97346.13
2022-11-28T11:23:01.606Z,97404.69
2022-11-28T11:25:32.705Z,97377.34
2022-11-28T11:28:02.404Z,97320.19
2022-11-28T11:30:29.196Z,97402.72
2022-11-28T11:32:57.889Z,97376.13
2022-11-28T11:35:31.664Z,97388.22
2022-11-28T11:38:17.775Z,97390.72
2022-11-28T11:40:45.045Z,97384.19
2022-11-28T11:43:44.189Z,97389.69
2022-11-28T11:46:16.208Z,97356.28
2022-11-28T11:48:48.554Z,97388.19
2022-11-28T11:51:26.890Z,97379.63
2022-11-28T11:54:16.197Z,97352.78
2022-11-28T11:56:46.856Z,97385.09
2022-11-28T11:59:39.130Z,97385.09
2022-11-28T12:02:19.704Z,97391.81
2022-11-28T12:04:55.129Z,97366.31
2022-11-28T12:07:44.412Z,97394.16
2022-11-28T12:10:16.257Z,97395.59
2022-11-28T12:12:43.669Z,97393.81
2022-11-28T12:15:42.622Z,97386.88
2022-11-28T12:18:36.915Z,97388.25
2022-11-28T12:21:14.097Z,97392.31
2022-11-28T12:24:09.499Z,97342.53
2022-11-28T12:27:04.930Z,97364.88
2022-11-28T12:29:52.573Z,97399.75
2022-11-28T12:32:56.612Z,97386.06
2022-11-28T12:35:29.194Z,97390.75
2022-11-28T12:38:14.015Z,97388.88
2022-11-28T12:41:05.536Z,97388.72
2022-11-28T12:43:42.666Z,97392.84
2022-11-28T12:46:23.431Z,97384.84
2022-11-28T12:48:56.005Z,97380.16
2022-11-28T12:51:25.403Z,97380.16
2022-11-28T12:53:58.102Z,97387.47
2022-11-28T12:56:35.961Z,97376.19
2022-11-28T12:59:22.427Z,97392.25
2022-11-28T13:02:01.388Z,97396.94
2022-11-28T13:04:47.832Z,97398.16
2022-11-28T13:07:38.718Z,97402.72
2022-11-28T13:10:24.209Z,97338.78
2022-11-28T13:13:29.735Z,97416.09
2022-11-28T13:16:00.471Z,97412.06
2022-11-28T13:18:41.111Z,97416.47
2022-11-28T13:21:38.646Z,97418.19
2022-11-28T13:24:10.158Z,97418.84
2022-11-28T13:27:02.740Z,97426.66
2022-11-28T13:29:47.493Z,97432.16
2022-11-28T13:32:32.625Z,97420.34
2022-11-28T13:35:00.087Z,97395.75
2022-11-28T13:40:56.764Z,97429.16
2022-11-28T13:43:42.157Z,97429.84
2022-11-28T13:46:09.550Z,97423.22
2022-11-28T13:49:12.584Z,97427.28
2022-11-28T13:51:31.990Z,97428.22
2022-11-28T13:54:17.386Z,97429.97
2022-11-28T13:56:46.044Z,97410.63
2022-11-28T13:59:21.550Z,97422.59
2022-11-28T14:01:56.951Z,97441.66
2022-11-28T14:04:24.551Z,97419.41
2022-11-28T14:06:58.991Z,97414.22
2022-11-28T14:09:49.457Z,97376.69
2022-11-28T14:12:44.223Z,97414.91
2022-11-28T14:15:34.532Z,97417.47
2022-11-28T14:21:19.196Z,97411.03
2022-11-28T14:23:58.489Z,97345.19
2022-11-28T14:26:37.985Z,97418.78
2022-11-28T14:29:17.068Z,97415.41
2022-11-28T14:32:06.709Z,97410.84
2022-11-28T14:34:39.884Z,97407.81
2022-11-28T14:37:21.606Z,97404.56
2022-11-28T14:39:49.807Z,97399.06
2022-11-28T14:42:36.876Z,97402.63
2022-11-28T14:45:41.417Z,97392.63
2022-11-28T14:48:27.440Z,97397.78
2022-11-28T14:51:00.863Z,97408.75
2022-11-28T14:53:37.031Z,97402.47
2022-11-28T14:56:22.678Z,97348.56
2022-11-28T14:58:52.201Z,97347.78
2022-11-28T15:01:44.773Z,97361.66
2022-11-28T15:04:31.050Z,97398.28
2022-11-28T15:07:00.684Z,97399.38
2022-11-28T15:09:43.685Z,97465.50
2022-11-28T15:12:21.965Z,97397.94
2022-11-28T15:14:55.224Z,97396.16
2022-11-28T15:17:25.672Z,97392.28
2022-11-28T15:19:52.559Z,97406.59
2022-11-28T15:22:42.694Z,97405.63
2022-11-28T15:25:18.509Z,97412.72
2022-11-28T15:27:45.225Z,97338.13
2022-11-28T15:30:20.204Z,97332.19
2022-11-28T15:32:47.826Z,97402.72
2022-11-28T15:35:17.717Z,97394.22
2022-11-28T15:37:56.674Z,97396.75
2022-11-28T15:40:31.277Z,97398.56
2022-11-28T15:42:58.906Z,97363.88
2022-11-28T15:45:28.484Z,97348.22
2022-11-28T15:47:56.476Z,97361.94
2022-11-28T15:50:25.522Z,97398.78
2022-11-28T15:53:03.480Z,97401.66
2022-11-28T15:55:32.621Z,97411.03
2022-11-28T15:58:11.967Z,97411.03
2022-11-28T16:00:45.588Z,97430.22
2022-11-28T16:03:24.558Z,97391.66
2022-11-28T16:05:54.673Z,97422.16
2022-11-28T16:08:36.256Z,97396.66
2022-11-28T16:11:06.865Z,97415.38
2022-11-28T16:13:34.064Z,97418.78
2022-11-28T16:16:04.147Z,97412.31
2022-11-28T16:18:31.457Z,97406.84
2022-11-28T16:21:01.082Z,97397.13
2022-11-28T16:23:35.219Z,97408.44
2022-11-28T16:26:08.187Z,97383.28
2022-11-28T16:28:37.459Z,97411.69
2022-11-28T16:31:19.269Z,97374.88
2022-11-28T16:33:47.861Z,97395.88
2022-11-28T16:36:25.503Z,97352.31
2022-11-28T16:39:11.296Z,97402.31
2022-11-28T16:41:41.207Z,97388.44
2022-11-28T16:44:14.557Z,97420.22
2022-11-28T16:47:01.299Z,97403.59
2022-11-28T16:49:33.895Z,97398.13
2022-11-28T16:52:27.323Z,97399.25
2022-11-28T16:54:55.186Z,97344.53
2022-11-28T16:57:22.212Z,97394.09
2022-11-28T16:59:52.028Z,97338.09
2022-11-28T17:02:24.611Z,97390.69
2022-11-28T17:04:53.278Z,97390.69
2022-11-28T17:07:23.170Z,97375.03
2022-11-28T17:09:50.679Z,97255.34
2022-11-28T17:12:29.725Z,97396.97
2022-11-28T17:14:58.330Z,97397.97
2022-11-28T17:17:25.360Z,97404.25
2022-11-28T17:19:52.350Z,97399.38
2022-11-28T17:22:21.313Z,97397.28
2022-11-28T17:24:49.758Z,97393.59
2022-11-28T17:27:16.530Z,97400.66
2022-11-28T17:29:43.877Z,97396.81
2022-11-28T17:32:13.494Z,97398.88
2022-11-28T17:34:42.205Z,97392.91
2022-11-28T17:37:09.370Z,97400.16
2022-11-28T17:39:36.106Z,97394.22
2022-11-28T17:42:02.699Z,97400.66
2022-11-28T17:44:31.758Z,97330.19
2022-11-28T17:47:03.058Z,97372.13
2022-11-28T17:49:33.709Z,97391.34
2022-11-28T17:52:00.404Z,97392.63
2022-11-28T17:54:27.648Z,97369.25
2022-11-28T17:56:54.760Z,97390.03
2022-11-28T17:59:23.543Z,97334.22
2022-11-28T18:01:50.265Z,97349.41
2022-11-28T18:04:17.709Z,97402.31
2022-11-28T18:06:46.906Z,97387.16
2022-11-28T18:09:14.354Z,97391.19
2022-11-28T18:11:41.991Z,97389.22
2022-11-28T18:14:09.137Z,97384.88
2022-11-28T18:16:36.239Z,97369.53
2022-11-28T18:19:04.309Z,97375.50
2022-11-28T18:21:31.677Z,97313.84
2022-11-28T18:23:58.335Z,97378.56
2022-11-28T18:26:26.208Z,97375.03
2022-11-28T18:28:54.045Z,97370.84
2022-11-28T18:31:22.652Z,97368.75
2022-11-28T18:33:49.805Z,97333.13
2022-11-28T18:36:19.422Z,97382.63
2022-11-28T18:38:46.347Z,97310.22
2022-11-28T18:41:15.001Z,97380.69
2022-11-28T18:43:42.178Z,97361.00
2022-11-28T18:46:13.608Z,97355.69
2022-11-28T18:48:42.893Z,97377.44
2022-11-28T18:51:14.417Z,97377.78
2022-11-28T18:53:41.246Z,97362.63
2022-11-28T18:56:08.620Z,97322.31
2022-11-28T18:58:36.971Z,97397.66
2022-11-28T19:01:10.140Z,97377.78
2022-11-28T19:03:37.514Z,97374.72
2022-11-28T19:06:06.041Z,97370.53
2022-11-28T19:08:33.078Z,97376.50
2022-11-28T19:11:04.267Z,97382.16
2022-11-28T19:13:30.990Z,97381.50
2022-11-28T19:15:57.627Z,97363.88
2022-11-28T19:18:24.378Z,97352.44
2022-11-28T19:20:51.194Z,97376.00
2022-11-28T19:23:17.889Z,97362.13
2022-11-28T19:25:46.626Z,97374.25
2022-11-28T19:28:14.013Z,97350.38
2022-11-28T19:30:40.680Z,97367.47
2022-11-28T19:33:07.336Z,97378.28
2022-11-28T19:35:34.659Z,97380.53
2022-11-28T19:38:01.474Z,97392.31
2022-11-28T19:40:28.352Z,97382.00
2022-11-28T19:42:54.932Z,97382.13
2022-11-28T19:45:21.546Z,97358.25
2022-11-28T19:47:48.791Z,97371.81
2022-11-28T19:50:15.651Z,97352.31
2022-11-28T19:52:42.333Z,97305.16
2022-11-28T19:55:09.170Z,97368.41
2022-11-28T19:57:37.524Z,97307.06
2022-11-28T20:00:06.161Z,97368.56
2022-11-28T20:02:33.062Z,97363.75
2022-11-28T20:04:59.680Z,97334.84
2022-11-28T20:07:27.976Z,97373.59
2022-11-28T20:09:54.829Z,97376.16
2022-11-28T20:12:21.505Z,97367.28
2022-11-28T20:14:48.267Z,97373.88
2022-11-28T20:17:14.870Z,97312.81
2022-11-28T20:19:41.981Z,97377.72
2022-11-28T20:22:08.947Z,97378.69
2022-11-28T20:24:35.630Z,97380.94
2022-11-28T20:27:02.398Z,97387.16
2022-11-28T20:29:30.372Z,97351.38
2022-11-28T20:31:57.430Z,97390.25
2022-11-28T20:34:24.258Z,97358.63
2022-11-28T20:36:52.802Z,97320.06
2022-11-28T20:39:19.761Z,97382.50
2022-11-28T20:41:46.411Z,97377.84
2022-11-28T20:44:13.029Z,97381.22
2022-11-28T20:46:39.993Z,97385.28
2022-11-28T20:49:07.348Z,97387.72
2022-11-28T20:51:35.028Z,97370.41
2022-11-28T20:54:02.845Z,97369.25
2022-11-28T20:56:41.821Z,97365.72
2022-11-28T20:59:18.658Z,97380.91
2022-11-28T21:01:45.333Z,97250.41
2022-11-28T21:04:14.641Z,97376.88
2022-11-28T21:06:42.492Z,97376.38
2022-11-28T21:09:09.129Z,97376.06
2022-11-28T21:11:56.171Z,97342.78
2022-11-28T21:14:22.686Z,97366.38
2022-11-28T21:16:49.438Z,97369.75
2022-11-28T21:19:16.045Z,97366.03
2022-11-28T21:21:43.280Z,97373.75
2022-11-28T21:24:12.450Z,97373.75
2022-11-28T21:26:43.162Z,97365.69
2022-11-28T21:29:13.520Z,97350.81
2022-11-28T21:31:42.347Z,97363.38
2022-11-28T21:34:14.318Z,97360.81
2022-11-28T21:36:41.772Z,97357.16
2022-11-28T21:39:13.358Z,97368.91
2022-11-28T21:41:40.099Z,97340.56
2022-11-28T21:44:06.922Z,97359.91
2022-11-28T21:46:33.498Z,97362.63
2022-11-28T21:49:00.138Z,97349.09
2022-11-28T21:51:28.641Z,97364.44
2022-11-28T21:53:57.439Z,97356.69
2022-11-28T21:56:24.466Z,97358.50
2022-11-28T21:58:51.203Z,97356.53
2022-11-28T22:01:18.110Z,97349.88
2022-11-28T22:03:44.853Z,97354.91
2022-11-28T22:06:16.382Z,97358.31
2022-11-28T22:08:43.850Z,97341.84
2022-11-28T22:11:13.140Z,97339.91
2022-11-28T22:13:42.231Z,97341.47
2022-11-28T22:16:11.294Z,97343.56
2022-11-28T22:18:38.447Z,97339.91
2022-11-28T22:21:22.565Z,97331.88
2022-11-28T22:23:54.065Z,97336.72
2022-11-28T22:26:20.701Z,97327.53
2022-11-28T22:28:53.242Z,97240.44
2022-11-28T22:31:20.579Z,97261.09
2022-11-28T22:33:49.449Z,97304.75
2022-11-28T22:36:18.874Z,97332.19
2022-11-28T22:38:46.901Z,97325.13
2022-11-28T22:41:24.796Z,97324.81
2022-11-28T22:43:55.739Z,97215.13
2022-11-28T22:46:22.489Z,97225.09
2022-11-28T22:48:49.197Z,97300.41
2022-11-28T22:51:19.360Z,97324.41
2022-11-28T22:53:46.050Z,97320.22
2022-11-28T22:56:15.023Z,97312.13
2022-11-28T22:58:44.403Z,97312.78
2022-11-28T23:01:18.354Z,97316.00
2022-11-28T23:03:46.243Z,97312.50
2022-11-28T23:06:15.678Z,97299.91
2022-11-28T23:08:42.533Z,97314.09
2022-11-28T23:11:14.747Z,97303.16
2022-11-28T23:13:42.203Z,97298.31
2022-11-28T23:16:13.446Z,97297.63
2022-11-28T23:18:40.986Z,97293.34
2022-11-28T23:21:07.787Z,97291.44
2022-11-28T23:23:36.276Z,97288.41
2022-11-28T23:26:11.944Z,97287.41
2022-11-28T23:28:38.918Z,97240.34
2022-11-28T23:31:10.415Z,97273.53
2022-11-28T23:33:38.465Z,97287.91
2022-11-28T23:36:19.722Z,97288.53
2022-11-28T23:38:48.535Z,97292.56
2022-11-28T23:41:15.141Z,97234.47
2022-11-28T23:43:42.023Z,97283.56
2022-11-28T23:46:10.305Z,97223.22
2022-11-28T23:48:37.270Z,97222.13
2022-11-28T23:51:06.222Z,97279.69
2022-11-28T23:53:34.068Z,97275.50
2022-11-28T23:56:05.315Z,97260.31
2022-11-28T23:58:31.997Z,97280.50
